N962TU KLAL-KLAL
Flight info
| Callsign | N962TU |
|---|---|
| Flight time | N/A |
| Altitude | VFR |
| Route | |
| Aircraft | C172/L-VGD/C |
Departure
| Time | 2026-05-04 21:12 |
|---|---|
| Airport | Lakeland Linder International Airport (KLAL) |
Arrival
| Time | N/A |
|---|---|
| Airport | Lakeland Linder International Airport (KLAL) |
| Time | Latitude | Longitude | Altitude | Speed | Heading |
|---|---|---|---|---|---|
| 2026-05-04 21:07 | 27.99178 | -82.01472 | 138 ft | 0 kts | 180° |
| 2026-05-04 21:09 | 27.99173 | -82.01482 | 139 ft | 6 kts | 277° |
| 2026-05-04 21:09 | 27.99106 | -82.01534 | 139 ft | 23 kts | 186° |
| 2026-05-04 21:09 | 27.99039 | -82.01655 | 138 ft | 20 kts | 268° |
| 2026-05-04 21:09 | 27.99038 | -82.01802 | 139 ft | 18 kts | 270° |
| 2026-05-04 21:10 | 27.99039 | -82.01956 | 138 ft | 22 kts | 269° |
| 2026-05-04 21:10 | 27.99015 | -82.02032 | 137 ft | 8 kts | 189° |
| 2026-05-04 21:10 | 27.98991 | -82.02038 | 137 ft | 0 kts | 193° |
| 2026-05-04 21:10 | 27.98949 | -82.02038 | 138 ft | 23 kts | 159° |
| 2026-05-04 21:11 | 27.98908 | -82.01958 | 141 ft | 0 kts | 90° |
| 2026-05-04 21:11 | 27.98914 | -82.01896 | 141 ft | 29 kts | 85° |
| 2026-05-04 21:11 | 27.98924 | -82.01487 | 165 ft | 69 kts | 90° |
| 2026-05-04 21:11 | 27.98940 | -82.00942 | 401 ft | 69 kts | 78° |
| 2026-05-04 21:12 | 27.99399 | -82.00771 | 583 ft | 81 kts | 353° |
| 2026-05-04 21:12 | 27.99815 | -82.01166 | 732 ft | 102 kts | 277° |
| 2026-05-04 21:12 | 27.99760 | -82.02008 | 878 ft | 107 kts | 268° |
| 2026-05-04 21:12 | 27.99719 | -82.02823 | 1153 ft | 103 kts | 271° |
| 2026-05-04 21:13 | 27.99670 | -82.03623 | 1386 ft | 99 kts | 269° |
| 2026-05-04 21:13 | 27.99624 | -82.04392 | 1638 ft | 99 kts | 269° |
| 2026-05-04 21:13 | 27.99597 | -82.05177 | 1877 ft | 99 kts | 267° |
| 2026-05-04 21:13 | 27.99571 | -82.05917 | 2102 ft | 91 kts | 267° |
| 2026-05-04 21:14 | 27.99505 | -82.06591 | 2316 ft | 83 kts | 253° |
| 2026-05-04 21:14 | 27.99370 | -82.07246 | 2473 ft | 87 kts | 250° |
| 2026-05-04 21:14 | 27.99227 | -82.07928 | 2661 ft | 91 kts | 252° |
| 2026-05-04 21:14 | 27.99072 | -82.08633 | 2841 ft | 94 kts | 254° |
| 2026-05-04 21:15 | 27.98896 | -82.09355 | 2997 ft | 96 kts | 255° |
| 2026-05-04 21:15 | 27.98717 | -82.10106 | 3178 ft | 101 kts | 255° |
| 2026-05-04 21:15 | 27.98541 | -82.10877 | 3351 ft | 101 kts | 254° |
| 2026-05-04 21:15 | 27.98367 | -82.11666 | 3518 ft | 106 kts | 253° |
| 2026-05-04 21:16 | 27.98166 | -82.12532 | 3538 ft | 121 kts | 253° |
| 2026-05-04 21:16 | 27.97935 | -82.13491 | 3536 ft | 131 kts | 254° |
| 2026-05-04 21:16 | 27.97692 | -82.14500 | 3534 ft | 134 kts | 253° |
| 2026-05-04 21:16 | 27.97450 | -82.15525 | 3534 ft | 135 kts | 254° |
| 2026-05-04 21:17 | 27.97205 | -82.16549 | 3528 ft | 135 kts | 253° |
| 2026-05-04 21:17 | 27.96995 | -82.17433 | 3529 ft | 136 kts | 254° |